sensor_id;sensor_type;location;lat;lon;timestamp;temperature;humidity
18717;DHT22;9487;50.892;6.906;2023-03-02T00:02:10;2.20;38.10
18717;DHT22;9487;50.892;6.906;2023-03-02T00:04:40;2.20;37.00
18717;DHT22;9487;50.892;6.906;2023-03-02T00:10:33;2.20;37.60
18717;DHT22;9487;50.892;6.906;2023-03-02T00:13:01;2.20;38.30
18717;DHT22;9487;50.892;6.906;2023-03-02T00:15:28;2.20;39.20
18717;DHT22;9487;50.892;6.906;2023-03-02T00:17:55;2.20;38.80
18717;DHT22;9487;50.892;6.906;2023-03-02T00:20:22;2.20;38.70
18717;DHT22;9487;50.892;6.906;2023-03-02T00:22:49;2.20;38.60
18717;DHT22;9487;50.892;6.906;2023-03-02T00:25:16;2.30;38.60
18717;DHT22;9487;50.892;6.906;2023-03-02T00:27:45;2.30;38.40
18717;DHT22;9487;50.892;6.906;2023-03-02T00:30:12;2.20;40.00
18717;DHT22;9487;50.892;6.906;2023-03-02T00:32:40;2.20;40.90
18717;DHT22;9487;50.892;6.906;2023-03-02T00:37:48;2.10;43.70
18717;DHT22;9487;50.892;6.906;2023-03-02T00:40:15;2.10;43.80
18717;DHT22;9487;50.892;6.906;2023-03-02T00:42:42;2.10;44.40
18717;DHT22;9487;50.892;6.906;2023-03-02T00:45:10;2.10;45.10
18717;DHT22;9487;50.892;6.906;2023-03-02T00:47:37;2.10;45.30
18717;DHT22;9487;50.892;6.906;2023-03-02T00:50:05;2.10;45.80
18717;DHT22;9487;50.892;6.906;2023-03-02T00:52:32;2.10;46.60
18717;DHT22;9487;50.892;6.906;2023-03-02T00:54:59;2.00;48.30
18717;DHT22;9487;50.892;6.906;2023-03-02T00:57:26;2.00;48.90
18717;DHT22;9487;50.892;6.906;2023-03-02T00:59:53;1.90;51.20
18717;DHT22;9487;50.892;6.906;2023-03-02T01:02:21;1.90;51.10
18717;DHT22;9487;50.892;6.906;2023-03-02T01:04:48;1.80;52.10
18717;DHT22;9487;50.892;6.906;2023-03-02T01:07:16;1.80;54.00
18717;DHT22;9487;50.892;6.906;2023-03-02T01:09:45;1.80;53.90
18717;DHT22;9487;50.892;6.906;2023-03-02T01:12:14;1.80;54.70
18717;DHT22;9487;50.892;6.906;2023-03-02T01:14:43;1.80;54.70
18717;DHT22;9487;50.892;6.906;2023-03-02T01:17:10;1.70;56.20
18717;DHT22;9487;50.892;6.906;2023-03-02T01:19:39;1.70;57.20
18717;DHT22;9487;50.892;6.906;2023-03-02T01:22:06;1.80;55.60
18717;DHT22;9487;50.892;6.906;2023-03-02T01:24:33;1.80;55.60
18717;DHT22;9487;50.892;6.906;2023-03-02T01:26:59;1.80;56.10
18717;DHT22;9487;50.892;6.906;2023-03-02T01:29:26;1.70;56.80
18717;DHT22;9487;50.892;6.906;2023-03-02T01:31:53;1.70;56.90
18717;DHT22;9487;50.892;6.906;2023-03-02T01:34:20;1.70;58.50
18717;DHT22;9487;50.892;6.906;2023-03-02T01:36:48;1.60;58.90
18717;DHT22;9487;50.892;6.906;2023-03-02T01:39:15;1.70;59.30
18717;DHT22;9487;50.892;6.906;2023-03-02T01:41:42;1.60;60.20
18717;DHT22;9487;50.892;6.906;2023-03-02T01:44:34;1.60;59.70
18717;DHT22;9487;50.892;6.906;2023-03-02T01:47:02;1.60;59.90
18717;DHT22;9487;50.892;6.906;2023-03-02T01:49:31;1.60;61.50
18717;DHT22;9487;50.892;6.906;2023-03-02T01:52:02;1.60;62.70
18717;DHT22;9487;50.892;6.906;2023-03-02T01:54:29;1.70;62.10
18717;DHT22;9487;50.892;6.906;2023-03-02T01:56:59;1.70;60.30
18717;DHT22;9487;50.892;6.906;2023-03-02T01:59:29;1.70;61.80
18717;DHT22;9487;50.892;6.906;2023-03-02T02:02:00;1.70;61.60
18717;DHT22;9487;50.892;6.906;2023-03-02T02:04:29;1.60;63.90
18717;DHT22;9487;50.892;6.906;2023-03-02T02:06:59;1.60;64.70
18717;DHT22;9487;50.892;6.906;2023-03-02T02:09:31;1.60;65.30
18717;DHT22;9487;50.892;6.906;2023-03-02T02:11:59;1.60;66.70
18717;DHT22;9487;50.892;6.906;2023-03-02T02:14:26;1.50;68.80
18717;DHT22;9487;50.892;6.906;2023-03-02T02:16:53;1.50;70.10
18717;DHT22;9487;50.892;6.906;2023-03-02T02:19:33;1.40;73.40
18717;DHT22;9487;50.892;6.906;2023-03-02T02:22:01;1.40;76.40
18717;DHT22;9487;50.892;6.906;2023-03-02T02:24:33;1.20;79.40
18717;DHT22;9487;50.892;6.906;2023-03-02T02:27:04;1.20;83.00
18717;DHT22;9487;50.892;6.906;2023-03-02T02:29:34;1.20;84.20
18717;DHT22;9487;50.892;6.906;2023-03-02T02:32:04;1.20;84.70
18717;DHT22;9487;50.892;6.906;2023-03-02T02:34:38;1.10;85.20
18717;DHT22;9487;50.892;6.906;2023-03-02T02:37:10;1.10;85.70
18717;DHT22;9487;50.892;6.906;2023-03-02T02:39:40;1.10;86.50
18717;DHT22;9487;50.892;6.906;2023-03-02T02:42:13;1.10;87.70
18717;DHT22;9487;50.892;6.906;2023-03-02T02:44:41;1.40;79.20
18717;DHT22;9487;50.892;6.906;2023-03-02T02:47:14;1.50;74.20
18717;DHT22;9487;50.892;6.906;2023-03-02T02:49:42;1.50;70.60
18717;DHT22;9487;50.892;6.906;2023-03-02T02:52:14;1.20;81.80
18717;DHT22;9487;50.892;6.906;2023-03-02T02:54:43;1.00;86.50
18717;DHT22;9487;50.892;6.906;2023-03-02T02:57:12;1.00;88.10
18717;DHT22;9487;50.892;6.906;2023-03-02T02:59:44;1.00;90.00
18717;DHT22;9487;50.892;6.906;2023-03-02T03:02:16;1.00;90.60
18717;DHT22;9487;50.892;6.906;2023-03-02T03:04:43;1.10;90.40
18717;DHT22;9487;50.892;6.906;2023-03-02T03:07:17;1.30;84.80
18717;DHT22;9487;50.892;6.906;2023-03-02T03:09:46;1.30;82.10
18717;DHT22;9487;50.892;6.906;2023-03-02T03:12:20;1.20;81.80
18717;DHT22;9487;50.892;6.906;2023-03-02T03:14:47;1.20;83.80
18717;DHT22;9487;50.892;6.906;2023-03-02T03:17:15;1.20;85.40
18717;DHT22;9487;50.892;6.906;2023-03-02T03:19:44;1.10;87.10
18717;DHT22;9487;50.892;6.906;2023-03-02T03:22:13;1.00;87.90
18717;DHT22;9487;50.892;6.906;2023-03-02T03:24:42;1.00;88.50
18717;DHT22;9487;50.892;6.906;2023-03-02T03:27:12;0.90;88.20
18717;DHT22;9487;50.892;6.906;2023-03-02T03:29:43;0.70;92.60
18717;DHT22;9487;50.892;6.906;2023-03-02T03:32:11;0.50;93.80
18717;DHT22;9487;50.892;6.906;2023-03-02T03:34:38;0.50;95.70
18717;DHT22;9487;50.892;6.906;2023-03-02T03:37:06;0.50;97.20
18717;DHT22;9487;50.892;6.906;2023-03-02T03:39:33;0.40;96.60
18717;DHT22;9487;50.892;6.906;2023-03-02T03:42:00;0.50;96.00
18717;DHT22;9487;50.892;6.906;2023-03-02T03:44:27;0.60;95.20
18717;DHT22;9487;50.892;6.906;2023-03-02T03:46:55;0.70;94.00
18717;DHT22;9487;50.892;6.906;2023-03-02T03:49:23;1.00;92.60
18717;DHT22;9487;50.892;6.906;2023-03-02T03:51:49;1.10;87.70
18717;DHT22;9487;50.892;6.906;2023-03-02T03:54:16;1.00;88.00
18717;DHT22;9487;50.892;6.906;2023-03-02T03:56:45;0.80;90.40
18717;DHT22;9487;50.892;6.906;2023-03-02T03:59:16;0.80;91.90
18717;DHT22;9487;50.892;6.906;2023-03-02T04:01:45;0.40;95.10
18717;DHT22;9487;50.892;6.906;2023-03-02T04:04:17;0.30;98.30
18717;DHT22;9487;50.892;6.906;2023-03-02T04:06:44;0.20;99.40
18717;DHT22;9487;50.892;6.906;2023-03-02T04:09:11;0.10;99.90
18717;DHT22;9487;50.892;6.906;2023-03-02T04:11:41;0.10;99.90
18717;DHT22;9487;50.892;6.906;2023-03-02T04:14:09;0.10;99.90
18717;DHT22;9487;50.892;6.906;2023-03-02T04:16:36;0.10;99.90
18717;DHT22;9487;50.892;6.906;2023-03-02T04:19:04;0.20;99.90
18717;DHT22;9487;50.892;6.906;2023-03-02T04:21:36;0.50;99.30
18717;DHT22;9487;50.892;6.906;2023-03-02T04:24:03;0.40;97.50
18717;DHT22;9487;50.892;6.906;2023-03-02T04:26:30;0.60;97.40
18717;DHT22;9487;50.892;6.906;2023-03-02T04:28:57;0.80;93.60
18717;DHT22;9487;50.892;6.906;2023-03-02T04:31:24;0.70;91.50
18717;DHT22;9487;50.892;6.906;2023-03-02T04:33:50;0.50;94.60
18717;DHT22;9487;50.892;6.906;2023-03-02T04:36:17;0.40;97.10
18717;DHT22;9487;50.892;6.906;2023-03-02T04:38:46;0.40;96.10
18717;DHT22;9487;50.892;6.906;2023-03-02T04:41:13;0.40;98.80
18717;DHT22;9487;50.892;6.906;2023-03-02T04:43:40;0.70;95.00
18717;DHT22;9487;50.892;6.906;2023-03-02T04:46:08;0.90;93.40
18717;DHT22;9487;50.892;6.906;2023-03-02T04:48:36;0.80;92.60
18717;DHT22;9487;50.892;6.906;2023-03-02T04:51:03;0.80;93.50
18717;DHT22;9487;50.892;6.906;2023-03-02T04:53:29;0.70;94.40
18717;DHT22;9487;50.892;6.906;2023-03-02T04:55:58;0.50;93.80
18717;DHT22;9487;50.892;6.906;2023-03-02T04:58:25;0.20;99.90
18717;DHT22;9487;50.892;6.906;2023-03-02T05:00:51;0.00;99.90
18717;DHT22;9487;50.892;6.906;2023-03-02T05:03:19;-0.20;99.90
18717;DHT22;9487;50.892;6.906;2023-03-02T05:05:46;0.00;99.90
18717;DHT22;9487;50.892;6.906;2023-03-02T05:08:12;0.20;99.90
18717;DHT22;9487;50.892;6.906;2023-03-02T05:10:39;0.30;99.90
18717;DHT22;9487;50.892;6.906;2023-03-02T05:13:07;0.30;99.90
18717;DHT22;9487;50.892;6.906;2023-03-02T05:15:37;0.30;99.90
18717;DHT22;9487;50.892;6.906;2023-03-02T05:18:06;0.30;99.90
18717;DHT22;9487;50.892;6.906;2023-03-02T05:20:34;0.10;99.90
18717;DHT22;9487;50.892;6.906;2023-03-02T05:23:03;-0.20;99.90
18717;DHT22;9487;50.892;6.906;2023-03-02T05:25:32;-0.30;99.90
18717;DHT22;9487;50.892;6.906;2023-03-02T05:28:00;-0.40;99.90
18717;DHT22;9487;50.892;6.906;2023-03-02T05:30:28;-0.40;99.90
18717;DHT22;9487;50.892;6.906;2023-03-02T05:32:57;-0.50;99.90
18717;DHT22;9487;50.892;6.906;2023-03-02T05:35:24;-0.50;99.90
18717;DHT22;9487;50.892;6.906;2023-03-02T05:37:51;-0.50;99.90
18717;DHT22;9487;50.892;6.906;2023-03-02T05:40:20;-0.40;99.90
18717;DHT22;9487;50.892;6.906;2023-03-02T05:42:47;-0.30;99.90
18717;DHT22;9487;50.892;6.906;2023-03-02T05:45:18;0.00;99.90
18717;DHT22;9487;50.892;6.906;2023-03-02T05:47:48;0.20;99.90
18717;DHT22;9487;50.892;6.906;2023-03-02T05:50:15;0.20;99.90
18717;DHT22;9487;50.892;6.906;2023-03-02T05:52:42;0.20;99.90
18717;DHT22;9487;50.892;6.906;2023-03-02T05:55:10;0.10;99.90
18717;DHT22;9487;50.892;6.906;2023-03-02T05:57:36;0.10;99.90
18717;DHT22;9487;50.892;6.906;2023-03-02T06:00:05;0.20;99.90
18717;DHT22;9487;50.892;6.906;2023-03-02T06:02:32;0.30;99.90
18717;DHT22;9487;50.892;6.906;2023-03-02T06:05:01;0.30;99.90
18717;DHT22;9487;50.892;6.906;2023-03-02T06:07:28;0.30;99.90
18717;DHT22;9487;50.892;6.906;2023-03-02T06:09:54;0.20;99.90
18717;DHT22;9487;50.892;6.906;2023-03-02T06:12:22;0.20;99.90
18717;DHT22;9487;50.892;6.906;2023-03-02T06:14:48;0.20;99.90
18717;DHT22;9487;50.892;6.906;2023-03-02T06:17:15;0.10;99.90
18717;DHT22;9487;50.892;6.906;2023-03-02T06:19:42;0.10;99.90
18717;DHT22;9487;50.892;6.906;2023-03-02T06:22:10;0.00;99.90
18717;DHT22;9487;50.892;6.906;2023-03-02T06:24:37;0.00;99.90
18717;DHT22;9487;50.892;6.906;2023-03-02T06:27:04;0.00;99.90
18717;DHT22;9487;50.892;6.906;2023-03-02T06:29:30;0.00;99.90
18717;DHT22;9487;50.892;6.906;2023-03-02T06:31:57;0.00;99.90
18717;DHT22;9487;50.892;6.906;2023-03-02T06:34:24;0.10;99.90
18717;DHT22;9487;50.892;6.906;2023-03-02T06:36:51;0.20;99.90
18717;DHT22;9487;50.892;6.906;2023-03-02T06:39:19;0.10;99.90
18717;DHT22;9487;50.892;6.906;2023-03-02T06:41:47;0.00;99.90
18717;DHT22;9487;50.892;6.906;2023-03-02T06:44:15;0.20;99.90
18717;DHT22;9487;50.892;6.906;2023-03-02T06:46:43;0.30;99.90
18717;DHT22;9487;50.892;6.906;2023-03-02T06:49:10;0.30;99.90
18717;DHT22;9487;50.892;6.906;2023-03-02T06:51:37;0.30;99.90
18717;DHT22;9487;50.892;6.906;2023-03-02T06:54:05;0.40;99.90
18717;DHT22;9487;50.892;6.906;2023-03-02T06:56:34;0.40;99.90
18717;DHT22;9487;50.892;6.906;2023-03-02T06:59:02;0.40;99.90
18717;DHT22;9487;50.892;6.906;2023-03-02T07:01:29;0.50;99.90
18717;DHT22;9487;50.892;6.906;2023-03-02T07:03:59;0.50;99.90
18717;DHT22;9487;50.892;6.906;2023-03-02T07:06:26;0.50;99.90
18717;DHT22;9487;50.892;6.906;2023-03-02T07:08:53;0.40;99.90
18717;DHT22;9487;50.892;6.906;2023-03-02T07:11:20;0.20;99.90
18717;DHT22;9487;50.892;6.906;2023-03-02T07:13:48;0.30;99.90
18717;DHT22;9487;50.892;6.906;2023-03-02T07:16:16;0.60;99.90
18717;DHT22;9487;50.892;6.906;2023-03-02T07:18:43;0.90;98.70
18717;DHT22;9487;50.892;6.906;2023-03-02T07:21:10;1.00;97.00
18717;DHT22;9487;50.892;6.906;2023-03-02T07:23:36;1.10;96.20
18717;DHT22;9487;50.892;6.906;2023-03-02T07:26:03;1.10;95.20
18717;DHT22;9487;50.892;6.906;2023-03-02T07:28:33;1.10;95.40
18717;DHT22;9487;50.892;6.906;2023-03-02T07:31:01;1.10;95.80
18717;DHT22;9487;50.892;6.906;2023-03-02T07:33:28;1.20;95.20
18717;DHT22;9487;50.892;6.906;2023-03-02T07:35:55;1.30;94.30
18717;DHT22;9487;50.892;6.906;2023-03-02T07:38:22;1.40;94.70
18717;DHT22;9487;50.892;6.906;2023-03-02T07:40:49;1.50;93.20
18717;DHT22;9487;50.892;6.906;2023-03-02T07:43:17;1.60;92.60
18717;DHT22;9487;50.892;6.906;2023-03-02T07:45:44;1.70;92.00
18717;DHT22;9487;50.892;6.906;2023-03-02T07:48:12;1.90;87.60
18717;DHT22;9487;50.892;6.906;2023-03-02T07:50:39;1.90;83.50
18717;DHT22;9487;50.892;6.906;2023-03-02T07:53:06;2.00;84.80
18717;DHT22;9487;50.892;6.906;2023-03-02T07:55:33;2.10;84.40
18717;DHT22;9487;50.892;6.906;2023-03-02T07:58:00;2.10;81.60
18717;DHT22;9487;50.892;6.906;2023-03-02T08:00:27;2.20;79.30
18717;DHT22;9487;50.892;6.906;2023-03-02T08:02:54;2.30;77.60
18717;DHT22;9487;50.892;6.906;2023-03-02T08:05:22;2.50;74.20
18717;DHT22;9487;50.892;6.906;2023-03-02T08:07:48;2.60;71.70
18717;DHT22;9487;50.892;6.906;2023-03-02T08:10:15;2.70;69.50
18717;DHT22;9487;50.892;6.906;2023-03-02T08:12:42;2.90;63.90
18717;DHT22;9487;50.892;6.906;2023-03-02T08:15:10;3.00;60.30
18717;DHT22;9487;50.892;6.906;2023-03-02T08:17:37;3.10;60.80
18717;DHT22;9487;50.892;6.906;2023-03-02T08:20:05;3.20;58.20
18717;DHT22;9487;50.892;6.906;2023-03-02T08:22:34;3.30;56.10
18717;DHT22;9487;50.892;6.906;2023-03-02T08:25:02;3.30;56.10
18717;DHT22;9487;50.892;6.906;2023-03-02T08:27:28;3.40;55.90
18717;DHT22;9487;50.892;6.906;2023-03-02T08:29:55;3.50;55.30
18717;DHT22;9487;50.892;6.906;2023-03-02T08:32:22;3.60;52.60
18717;DHT22;9487;50.892;6.906;2023-03-02T08:34:49;3.20;51.60
18717;DHT22;9487;50.892;6.906;2023-03-02T08:37:16;3.00;56.40
18717;DHT22;9487;50.892;6.906;2023-03-02T08:39:45;3.10;58.00
18717;DHT22;9487;50.892;6.906;2023-03-02T08:42:11;3.00;55.00
18717;DHT22;9487;50.892;6.906;2023-03-02T08:44:38;3.30;51.30
18717;DHT22;9487;50.892;6.906;2023-03-02T08:47:05;3.50;48.70
18717;DHT22;9487;50.892;6.906;2023-03-02T08:49:32;3.40;45.80
18717;DHT22;9487;50.892;6.906;2023-03-02T08:51:58;3.50;50.10
18717;DHT22;9487;50.892;6.906;2023-03-02T08:54:25;4.00;44.00
18717;DHT22;9487;50.892;6.906;2023-03-02T08:56:54;4.20;29.40
18717;DHT22;9487;50.892;6.906;2023-03-02T08:59:21;4.00;27.70
18717;DHT22;9487;50.892;6.906;2023-03-02T09:01:47;4.00;29.40
18717;DHT22;9487;50.892;6.906;2023-03-02T09:04:14;4.30;29.40
18717;DHT22;9487;50.892;6.906;2023-03-02T09:06:43;4.80;17.40
18717;DHT22;9487;50.892;6.906;2023-03-02T09:09:12;4.90;8.70
18717;DHT22;9487;50.892;6.906;2023-03-02T09:11:39;5.20;2.10
18717;DHT22;9487;50.892;6.906;2023-03-02T09:14:08;5.40;1.00
18717;DHT22;9487;50.892;6.906;2023-03-02T09:16:35;5.60;1.00
18717;DHT22;9487;50.892;6.906;2023-03-02T09:19:02;5.90;1.00
18717;DHT22;9487;50.892;6.906;2023-03-02T09:21:29;5.80;1.00
18717;DHT22;9487;50.892;6.906;2023-03-02T09:23:56;5.50;1.00
18717;DHT22;9487;50.892;6.906;2023-03-02T09:26:23;5.50;1.00
18717;DHT22;9487;50.892;6.906;2023-03-02T09:28:50;5.10;1.00
18717;DHT22;9487;50.892;6.906;2023-03-02T09:31:18;5.00;1.00
18717;DHT22;9487;50.892;6.906;2023-03-02T09:33:45;5.00;1.00
18717;DHT22;9487;50.892;6.906;2023-03-02T09:36:18;5.40;1.00
18717;DHT22;9487;50.892;6.906;2023-03-02T09:38:45;5.80;1.00
18717;DHT22;9487;50.892;6.906;2023-03-02T09:41:33;6.10;1.00
18717;DHT22;9487;50.892;6.906;2023-03-02T09:44:16;5.70;1.00
18717;DHT22;9487;50.892;6.906;2023-03-02T09:46:52;5.50;1.00
18717;DHT22;9487;50.892;6.906;2023-03-02T09:49:28;5.80;1.00
18717;DHT22;9487;50.892;6.906;2023-03-02T09:52:07;6.20;1.00
18717;DHT22;9487;50.892;6.906;2023-03-02T09:54:37;6.20;1.00
18717;DHT22;9487;50.892;6.906;2023-03-02T09:57:21;6.20;1.00
18717;DHT22;9487;50.892;6.906;2023-03-02T09:59:53;6.40;1.00
18717;DHT22;9487;50.892;6.906;2023-03-02T10:02:26;6.10;1.00
18717;DHT22;9487;50.892;6.906;2023-03-02T10:04:56;6.60;1.00
18717;DHT22;9487;50.892;6.906;2023-03-02T10:07:28;6.90;1.00
18717;DHT22;9487;50.892;6.906;2023-03-02T10:09:59;6.60;1.00
18717;DHT22;9487;50.892;6.906;2023-03-02T10:12:45;6.60;1.00
18717;DHT22;9487;50.892;6.906;2023-03-02T10:15:20;6.40;1.00
18717;DHT22;9487;50.892;6.906;2023-03-02T10:17:58;6.40;1.00
18717;DHT22;9487;50.892;6.906;2023-03-02T10:20:31;6.50;1.00
18717;DHT22;9487;50.892;6.906;2023-03-02T10:23:14;6.90;1.00
18717;DHT22;9487;50.892;6.906;2023-03-02T10:25:47;7.40;1.00
18717;DHT22;9487;50.892;6.906;2023-03-02T10:28:19;7.40;99.90
18717;DHT22;9487;50.892;6.906;2023-03-02T10:30:48;7.00;99.90
18717;DHT22;9487;50.892;6.906;2023-03-02T10:33:20;7.00;1.00
18717;DHT22;9487;50.892;6.906;2023-03-02T10:35:48;7.30;1.00
18717;DHT22;9487;50.892;6.906;2023-03-02T10:38:17;7.80;1.00
18717;DHT22;9487;50.892;6.906;2023-03-02T10:40:46;7.70;99.90
18717;DHT22;9487;50.892;6.906;2023-03-02T10:43:16;8.00;1.00
18717;DHT22;9487;50.892;6.906;2023-03-02T10:45:45;8.30;99.90
18717;DHT22;9487;50.892;6.906;2023-03-02T10:48:13;8.70;99.90
18717;DHT22;9487;50.892;6.906;2023-03-02T10:50:43;8.30;1.00
18717;DHT22;9487;50.892;6.906;2023-03-02T10:53:17;8.20;14.90
18717;DHT22;9487;50.892;6.906;2023-03-02T10:55:45;8.60;1.00
18717;DHT22;9487;50.892;6.906;2023-03-02T10:58:25;8.00;1.00
18717;DHT22;9487;50.892;6.906;2023-03-02T11:00:57;7.70;1.00
18717;DHT22;9487;50.892;6.906;2023-03-02T11:03:24;7.70;96.50
18717;DHT22;9487;50.892;6.906;2023-03-02T11:05:52;7.90;99.90
18717;DHT22;9487;50.892;6.906;2023-03-02T11:08:21;8.30;84.40
18717;DHT22;9487;50.892;6.906;2023-03-02T11:10:53;8.40;1.00
18717;DHT22;9487;50.892;6.906;2023-03-02T11:13:23;8.30;1.00
18717;DHT22;9487;50.892;6.906;2023-03-02T11:15:53;8.20;1.00
18717;DHT22;9487;50.892;6.906;2023-03-02T11:18:25;8.20;1.00
18717;DHT22;9487;50.892;6.906;2023-03-02T11:20:58;8.40;1.00
18717;DHT22;9487;50.892;6.906;2023-03-02T11:23:32;8.80;1.00
18717;DHT22;9487;50.892;6.906;2023-03-02T11:26:17;8.80;1.00
18717;DHT22;9487;50.892;6.906;2023-03-02T11:28:51;8.30;1.00
18717;DHT22;9487;50.892;6.906;2023-03-02T11:31:28;8.20;1.00
18717;DHT22;9487;50.892;6.906;2023-03-02T11:34:20;8.50;75.10
18717;DHT22;9487;50.892;6.906;2023-03-02T11:36:57;8.50;1.00
18717;DHT22;9487;50.892;6.906;2023-03-02T11:39:27;8.70;10.60
18717;DHT22;9487;50.892;6.906;2023-03-02T11:41:55;8.80;1.00
18717;DHT22;9487;50.892;6.906;2023-03-02T11:44:22;8.60;1.00
18717;DHT22;9487;50.892;6.906;2023-03-02T11:46:58;8.50;1.00
18717;DHT22;9487;50.892;6.906;2023-03-02T11:49:35;8.60;43.00
18717;DHT22;9487;50.892;6.906;2023-03-02T11:52:07;8.70;99.90
18717;DHT22;9487;50.892;6.906;2023-03-02T11:54:43;8.70;60.40
18717;DHT22;9487;50.892;6.906;2023-03-02T11:57:18;8.60;21.80
18717;DHT22;9487;50.892;6.906;2023-03-02T11:59:46;9.10;1.00
18717;DHT22;9487;50.892;6.906;2023-03-02T12:02:13;9.40;1.00
18717;DHT22;9487;50.892;6.906;2023-03-02T12:04:41;9.50;1.00
18717;DHT22;9487;50.892;6.906;2023-03-02T12:07:18;9.50;99.90
18717;DHT22;9487;50.892;6.906;2023-03-02T12:09:57;9.30;99.90
18717;DHT22;9487;50.892;6.906;2023-03-02T12:12:40;9.30;99.90
18717;DHT22;9487;50.892;6.906;2023-03-02T12:15:28;9.30;99.90
18717;DHT22;9487;50.892;6.906;2023-03-02T12:17:59;9.50;99.90
18717;DHT22;9487;50.892;6.906;2023-03-02T12:20:27;9.80;99.90
18717;DHT22;9487;50.892;6.906;2023-03-02T12:23:08;9.80;27.70
18717;DHT22;9487;50.892;6.906;2023-03-02T12:25:38;9.50;42.20
18717;DHT22;9487;50.892;6.906;2023-03-02T12:28:24;9.60;99.90
18717;DHT22;9487;50.892;6.906;2023-03-02T12:30:56;9.50;71.90
18717;DHT22;9487;50.892;6.906;2023-03-02T12:33:26;9.50;70.10
18717;DHT22;9487;50.892;6.906;2023-03-02T12:38:32;9.60;1.00
18717;DHT22;9487;50.892;6.906;2023-03-02T12:41:24;9.60;1.00
18717;DHT22;9487;50.892;6.906;2023-03-02T12:44:15;9.60;1.00
18717;DHT22;9487;50.892;6.906;2023-03-02T12:46:48;9.80;1.00
18717;DHT22;9487;50.892;6.906;2023-03-02T12:49:32;9.80;1.00
18717;DHT22;9487;50.892;6.906;2023-03-02T12:52:02;10.00;1.00
18717;DHT22;9487;50.892;6.906;2023-03-02T12:54:32;9.90;1.00
18717;DHT22;9487;50.892;6.906;2023-03-02T12:57:06;10.00;1.00
18717;DHT22;9487;50.892;6.906;2023-03-02T12:59:39;10.10;1.00
18717;DHT22;9487;50.892;6.906;2023-03-02T13:02:14;10.20;1.00
18717;DHT22;9487;50.892;6.906;2023-03-02T13:04:40;10.10;1.00
18717;DHT22;9487;50.892;6.906;2023-03-02T13:07:14;10.00;1.00
18717;DHT22;9487;50.892;6.906;2023-03-02T13:09:48;10.00;99.90
18717;DHT22;9487;50.892;6.906;2023-03-02T13:12:15;10.10;99.90
18717;DHT22;9487;50.892;6.906;2023-03-02T13:14:44;10.00;94.60
18717;DHT22;9487;50.892;6.906;2023-03-02T13:17:21;10.00;99.90
18717;DHT22;9487;50.892;6.906;2023-03-02T13:19:49;10.10;99.90
18717;DHT22;9487;50.892;6.906;2023-03-02T13:22:16;10.10;99.90
18717;DHT22;9487;50.892;6.906;2023-03-02T13:24:49;10.20;99.90
18717;DHT22;9487;50.892;6.906;2023-03-02T13:27:18;10.30;99.90
18717;DHT22;9487;50.892;6.906;2023-03-02T13:29:45;10.30;32.60
18717;DHT22;9487;50.892;6.906;2023-03-02T13:32:17;10.30;73.10
18717;DHT22;9487;50.892;6.906;2023-03-02T13:34:46;10.50;1.00
18717;DHT22;9487;50.892;6.906;2023-03-02T13:37:33;10.50;1.00
18717;DHT22;9487;50.892;6.906;2023-03-02T13:40:23;10.70;1.00
18717;DHT22;9487;50.892;6.906;2023-03-02T13:42:54;10.70;1.00
18717;DHT22;9487;50.892;6.906;2023-03-02T13:45:24;10.70;1.00
18717;DHT22;9487;50.892;6.906;2023-03-02T13:47:51;10.80;1.00
18717;DHT22;9487;50.892;6.906;2023-03-02T13:50:20;10.70;1.00
18717;DHT22;9487;50.892;6.906;2023-03-02T13:52:47;10.80;99.90
18717;DHT22;9487;50.892;6.906;2023-03-02T13:55:17;10.80;99.90
18717;DHT22;9487;50.892;6.906;2023-03-02T13:57:46;11.00;99.90
18717;DHT22;9487;50.892;6.906;2023-03-02T14:00:15;11.00;99.90
18717;DHT22;9487;50.892;6.906;2023-03-02T14:02:44;11.00;99.90
18717;DHT22;9487;50.892;6.906;2023-03-02T14:05:16;10.90;12.70
18717;DHT22;9487;50.892;6.906;2023-03-02T14:07:43;11.00;32.10
18717;DHT22;9487;50.892;6.906;2023-03-02T14:10:11;11.10;34.10
18717;DHT22;9487;50.892;6.906;2023-03-02T14:12:40;11.00;1.00
18717;DHT22;9487;50.892;6.906;2023-03-02T14:15:13;11.10;1.00
18717;DHT22;9487;50.892;6.906;2023-03-02T14:17:41;11.00;1.00
18717;DHT22;9487;50.892;6.906;2023-03-02T14:20:11;11.10;1.00
18717;DHT22;9487;50.892;6.906;2023-03-02T14:22:38;11.20;1.00
18717;DHT22;9487;50.892;6.906;2023-03-02T14:25:06;11.20;1.00
18717;DHT22;9487;50.892;6.906;2023-03-02T14:27:33;11.30;1.00
18717;DHT22;9487;50.892;6.906;2023-03-02T14:30:01;11.20;1.00
18717;DHT22;9487;50.892;6.906;2023-03-02T14:32:29;11.10;1.00
18717;DHT22;9487;50.892;6.906;2023-03-02T14:34:56;11.10;1.00
18717;DHT22;9487;50.892;6.906;2023-03-02T14:37:26;11.20;1.00
18717;DHT22;9487;50.892;6.906;2023-03-02T14:39:53;11.20;1.00
18717;DHT22;9487;50.892;6.906;2023-03-02T14:42:21;11.30;1.00
18717;DHT22;9487;50.892;6.906;2023-03-02T14:44:49;11.40;1.00
18717;DHT22;9487;50.892;6.906;2023-03-02T14:47:17;11.40;1.00
18717;DHT22;9487;50.892;6.906;2023-03-02T14:49:46;11.50;1.00
18717;DHT22;9487;50.892;6.906;2023-03-02T14:52:18;11.60;1.00
18717;DHT22;9487;50.892;6.906;2023-03-02T14:54:50;11.60;1.00
18717;DHT22;9487;50.892;6.906;2023-03-02T14:57:20;11.70;1.00
18717;DHT22;9487;50.892;6.906;2023-03-02T14:59:48;11.70;1.00
18717;DHT22;9487;50.892;6.906;2023-03-02T15:02:17;11.70;1.00
18717;DHT22;9487;50.892;6.906;2023-03-02T15:04:44;11.60;1.00
18717;DHT22;9487;50.892;6.906;2023-03-02T15:07:12;11.60;1.00
18717;DHT22;9487;50.892;6.906;2023-03-02T15:09:40;11.60;1.00
18717;DHT22;9487;50.892;6.906;2023-03-02T15:12:08;11.60;1.00
18717;DHT22;9487;50.892;6.906;2023-03-02T15:14:36;11.50;1.00
18717;DHT22;9487;50.892;6.906;2023-03-02T15:17:03;11.60;1.00
18717;DHT22;9487;50.892;6.906;2023-03-02T15:19:31;11.60;1.00
18717;DHT22;9487;50.892;6.906;2023-03-02T15:21:58;11.60;1.00
18717;DHT22;9487;50.892;6.906;2023-03-02T15:24:25;11.70;1.00
18717;DHT22;9487;50.892;6.906;2023-03-02T15:26:52;11.70;1.00
18717;DHT22;9487;50.892;6.906;2023-03-02T15:29:19;11.60;1.00
18717;DHT22;9487;50.892;6.906;2023-03-02T15:31:46;11.60;1.00
18717;DHT22;9487;50.892;6.906;2023-03-02T15:34:13;11.60;1.00
18717;DHT22;9487;50.892;6.906;2023-03-02T15:36:41;11.60;1.00
18717;DHT22;9487;50.892;6.906;2023-03-02T15:39:11;11.60;1.00
18717;DHT22;9487;50.892;6.906;2023-03-02T15:41:38;11.50;99.90
18717;DHT22;9487;50.892;6.906;2023-03-02T15:44:06;11.50;99.90
18717;DHT22;9487;50.892;6.906;2023-03-02T15:46:33;11.50;1.00
18717;DHT22;9487;50.892;6.906;2023-03-02T15:49:00;11.60;1.00
18717;DHT22;9487;50.892;6.906;2023-03-02T15:51:26;11.70;1.00
18717;DHT22;9487;50.892;6.906;2023-03-02T15:53:54;11.70;1.00
18717;DHT22;9487;50.892;6.906;2023-03-02T15:56:21;11.60;99.90
18717;DHT22;9487;50.892;6.906;2023-03-02T15:58:48;11.60;99.90
18717;DHT22;9487;50.892;6.906;2023-03-02T16:01:15;11.60;1.00
18717;DHT22;9487;50.892;6.906;2023-03-02T16:03:42;11.60;99.90
18717;DHT22;9487;50.892;6.906;2023-03-02T16:06:09;11.60;1.00
18717;DHT22;9487;50.892;6.906;2023-03-02T16:08:37;11.50;1.00
18717;DHT22;9487;50.892;6.906;2023-03-02T16:11:06;11.50;1.00
18717;DHT22;9487;50.892;6.906;2023-03-02T16:13:34;11.50;1.00
18717;DHT22;9487;50.892;6.906;2023-03-02T16:16:02;11.60;1.00
18717;DHT22;9487;50.892;6.906;2023-03-02T16:18:29;11.50;1.00
18717;DHT22;9487;50.892;6.906;2023-03-02T16:20:56;11.50;99.90
18717;DHT22;9487;50.892;6.906;2023-03-02T16:23:23;11.30;99.90
18717;DHT22;9487;50.892;6.906;2023-03-02T16:25:50;11.30;1.00